Terminal Aerodrome Forecast
Issued by NWS

Home | Current Version | Previous Version | Graphics & Text | Print | Product List | Glossary On
Versions: 1 2 3 4 5 6 7 8 9 10 11 12 13 14 15 16
000
FTUS43 KGRB 271509 AAA
TAFCWA
TAF AMD
KCWA 271509Z 2715/2812 28014G19KT P6SM VCSH OVC015
     FM272200 30008KT 5SM -SHRA OVC009
     FM280300 32007KT P6SM -SHRA OVC006
     FM280900 33008KT P6SM OVC004=

USA.gov is the U.S. government's official web portal to all federal, state and local government web resources and services.